Terminal Aerodrome Forecast
Issued by NWS

Home | Current Version | Previous Version | Text Only | Print | Product List | Glossary On
Versions: 1 2 3 4 5 6 7 8 9 10 11 12 13 14 15
481
FTUS45 KMSO 281128
TAFSMN
TAF
KSMN 281128Z 2812/0112 21007KT P6SM OVC050
     FM281800 23012G18KT P6SM BKN100
     FM282100 33011G18KT P6SM BKN100
     FM010100 32007KT P6SM BKN100
      AMD LTD TO CLD VIS AND WIND=

USA.gov is the U.S. government's official web portal to all federal, state and local government web resources and services.